sensor_id;sensor_type;location;lat;lon;timestamp;temperature;humidity
3548;DHT22;1788;49.400;11.092;2023-07-09T00:01:58;23.50;46.70
3548;DHT22;1788;49.400;11.092;2023-07-09T00:04:25;23.40;47.00
3548;DHT22;1788;49.400;11.092;2023-07-09T00:06:52;23.40;46.80
3548;DHT22;1788;49.400;11.092;2023-07-09T00:09:19;23.40;46.90
3548;DHT22;1788;49.400;11.092;2023-07-09T00:11:45;23.30;46.90
3548;DHT22;1788;49.400;11.092;2023-07-09T00:14:13;23.30;47.00
3548;DHT22;1788;49.400;11.092;2023-07-09T00:16:39;23.30;47.10
3548;DHT22;1788;49.400;11.092;2023-07-09T00:19:10;23.20;47.20
3548;DHT22;1788;49.400;11.092;2023-07-09T00:21:32;23.20;47.20
3548;DHT22;1788;49.400;11.092;2023-07-09T00:23:59;23.20;47.40
3548;DHT22;1788;49.400;11.092;2023-07-09T00:26:27;23.10;47.40
3548;DHT22;1788;49.400;11.092;2023-07-09T00:28:55;23.10;47.60
3548;DHT22;1788;49.400;11.092;2023-07-09T00:31:21;23.00;47.50
3548;DHT22;1788;49.400;11.092;2023-07-09T00:33:48;23.00;47.60
3548;DHT22;1788;49.400;11.092;2023-07-09T00:36:16;23.00;47.70
3548;DHT22;1788;49.400;11.092;2023-07-09T00:38:42;23.00;47.70
3548;DHT22;1788;49.400;11.092;2023-07-09T00:43:36;22.90;47.70
3548;DHT22;1788;49.400;11.092;2023-07-09T00:48:30;22.80;47.80
3548;DHT22;1788;49.400;11.092;2023-07-09T00:50:57;22.80;47.90
3548;DHT22;1788;49.400;11.092;2023-07-09T00:55:54;22.70;48.10
3548;DHT22;1788;49.400;11.092;2023-07-09T00:58:18;22.70;48.30
3548;DHT22;1788;49.400;11.092;2023-07-09T01:00:47;22.60;48.20
3548;DHT22;1788;49.400;11.092;2023-07-09T01:05:39;22.50;48.30
3548;DHT22;1788;49.400;11.092;2023-07-09T01:08:06;22.50;48.40
3548;DHT22;1788;49.400;11.092;2023-07-09T01:10:33;22.50;48.40
3548;DHT22;1788;49.400;11.092;2023-07-09T01:13:00;22.40;48.50
3548;DHT22;1788;49.400;11.092;2023-07-09T01:15:27;22.40;48.50
3548;DHT22;1788;49.400;11.092;2023-07-09T01:17:54;22.40;48.70
3548;DHT22;1788;49.400;11.092;2023-07-09T01:20:21;22.40;48.70
3548;DHT22;1788;49.400;11.092;2023-07-09T01:22:49;22.30;48.80
3548;DHT22;1788;49.400;11.092;2023-07-09T01:25:15;22.40;48.90
3548;DHT22;1788;49.400;11.092;2023-07-09T01:27:44;22.30;48.90
3548;DHT22;1788;49.400;11.092;2023-07-09T01:30:12;22.30;48.90
3548;DHT22;1788;49.400;11.092;2023-07-09T01:32:36;22.20;49.10
3548;DHT22;1788;49.400;11.092;2023-07-09T01:35:04;22.20;49.00
3548;DHT22;1788;49.400;11.092;2023-07-09T01:37:30;22.20;49.20
3548;DHT22;1788;49.400;11.092;2023-07-09T01:39:57;22.20;49.20
3548;DHT22;1788;49.400;11.092;2023-07-09T01:42:25;22.10;49.30
3548;DHT22;1788;49.400;11.092;2023-07-09T01:44:51;22.10;49.30
3548;DHT22;1788;49.400;11.092;2023-07-09T01:47:18;22.10;49.40
3548;DHT22;1788;49.400;11.092;2023-07-09T01:49:45;22.00;49.30
3548;DHT22;1788;49.400;11.092;2023-07-09T01:52:12;22.00;49.50
3548;DHT22;1788;49.400;11.092;2023-07-09T01:54:39;22.00;49.50
3548;DHT22;1788;49.400;11.092;2023-07-09T01:59:33;22.00;49.60
3548;DHT22;1788;49.400;11.092;2023-07-09T02:02:00;21.90;49.60
3548;DHT22;1788;49.400;11.092;2023-07-09T02:04:27;21.90;49.60
3548;DHT22;1788;49.400;11.092;2023-07-09T02:06:54;21.90;49.70
3548;DHT22;1788;49.400;11.092;2023-07-09T02:09:22;21.80;49.60
3548;DHT22;1788;49.400;11.092;2023-07-09T02:11:48;21.80;49.60
3548;DHT22;1788;49.400;11.092;2023-07-09T02:14:16;21.80;49.70
3548;DHT22;1788;49.400;11.092;2023-07-09T02:16:42;21.70;49.60
3548;DHT22;1788;49.400;11.092;2023-07-09T02:19:10;21.70;49.80
3548;DHT22;1788;49.400;11.092;2023-07-09T02:21:36;21.70;49.70
3548;DHT22;1788;49.400;11.092;2023-07-09T02:24:04;21.70;49.90
3548;DHT22;1788;49.400;11.092;2023-07-09T02:26:30;21.60;49.80
3548;DHT22;1788;49.400;11.092;2023-07-09T02:28:58;21.60;50.00
3548;DHT22;1788;49.400;11.092;2023-07-09T02:31:24;21.60;49.90
3548;DHT22;1788;49.400;11.092;2023-07-09T02:33:52;21.50;50.00
3548;DHT22;1788;49.400;11.092;2023-07-09T02:36:18;21.50;50.00
3548;DHT22;1788;49.400;11.092;2023-07-09T02:38:46;21.50;50.10
3548;DHT22;1788;49.400;11.092;2023-07-09T02:41:12;21.50;50.10
3548;DHT22;1788;49.400;11.092;2023-07-09T02:43:40;21.50;50.20
3548;DHT22;1788;49.400;11.092;2023-07-09T02:46:06;21.40;50.10
3548;DHT22;1788;49.400;11.092;2023-07-09T02:48:34;21.40;50.20
3548;DHT22;1788;49.400;11.092;2023-07-09T02:51:00;21.30;50.10
3548;DHT22;1788;49.400;11.092;2023-07-09T02:53:28;21.30;50.30
3548;DHT22;1788;49.400;11.092;2023-07-09T02:55:54;21.30;50.30
3548;DHT22;1788;49.400;11.092;2023-07-09T02:58:22;21.20;50.30
3548;DHT22;1788;49.400;11.092;2023-07-09T03:00:49;21.20;50.30
3548;DHT22;1788;49.400;11.092;2023-07-09T03:03:16;21.20;50.50
3548;DHT22;1788;49.400;11.092;2023-07-09T03:05:44;21.20;50.50
3548;DHT22;1788;49.400;11.092;2023-07-09T03:08:10;21.10;50.60
3548;DHT22;1788;49.400;11.092;2023-07-09T03:10:37;21.10;50.60
3548;DHT22;1788;49.400;11.092;2023-07-09T03:13:04;21.10;50.70
3548;DHT22;1788;49.400;11.092;2023-07-09T03:15:31;21.10;50.70
3548;DHT22;1788;49.400;11.092;2023-07-09T03:17:58;21.10;50.70
3548;DHT22;1788;49.400;11.092;2023-07-09T03:20:25;21.10;50.60
3548;DHT22;1788;49.400;11.092;2023-07-09T03:22:52;21.00;50.60
3548;DHT22;1788;49.400;11.092;2023-07-09T03:25:19;21.00;50.60
3548;DHT22;1788;49.400;11.092;2023-07-09T03:30:13;21.00;50.60
3548;DHT22;1788;49.400;11.092;2023-07-09T03:32:40;20.90;50.70
3548;DHT22;1788;49.400;11.092;2023-07-09T03:35:07;20.90;50.70
3548;DHT22;1788;49.400;11.092;2023-07-09T03:37:34;20.90;50.90
3548;DHT22;1788;49.400;11.092;2023-07-09T03:40:01;20.90;50.80
3548;DHT22;1788;49.400;11.092;2023-07-09T03:42:28;20.90;51.00
3548;DHT22;1788;49.400;11.092;2023-07-09T03:44:55;20.80;50.90
3548;DHT22;1788;49.400;11.092;2023-07-09T03:47:22;20.80;51.10
3548;DHT22;1788;49.400;11.092;2023-07-09T03:49:49;20.80;51.10
3548;DHT22;1788;49.400;11.092;2023-07-09T03:52:16;20.80;51.20
3548;DHT22;1788;49.400;11.092;2023-07-09T03:54:43;20.80;51.20
3548;DHT22;1788;49.400;11.092;2023-07-09T03:57:10;20.80;51.30
3548;DHT22;1788;49.400;11.092;2023-07-09T03:59:37;20.80;51.30
3548;DHT22;1788;49.400;11.092;2023-07-09T04:02:04;20.80;51.50
3548;DHT22;1788;49.400;11.092;2023-07-09T04:04:31;20.80;51.50
3548;DHT22;1788;49.400;11.092;2023-07-09T04:06:58;20.70;51.60
3548;DHT22;1788;49.400;11.092;2023-07-09T04:09:25;20.70;51.50
3548;DHT22;1788;49.400;11.092;2023-07-09T04:11:52;20.80;51.70
3548;DHT22;1788;49.400;11.092;2023-07-09T04:14:19;20.80;51.70
3548;DHT22;1788;49.400;11.092;2023-07-09T04:16:46;20.80;51.80
3548;DHT22;1788;49.400;11.092;2023-07-09T04:19:13;20.80;51.80
3548;DHT22;1788;49.400;11.092;2023-07-09T04:21:40;20.80;51.90
3548;DHT22;1788;49.400;11.092;2023-07-09T04:24:07;20.80;51.90
3548;DHT22;1788;49.400;11.092;2023-07-09T04:26:34;20.80;52.00
3548;DHT22;1788;49.400;11.092;2023-07-09T04:29:01;20.80;52.00
3548;DHT22;1788;49.400;11.092;2023-07-09T04:31:28;20.90;52.20
3548;DHT22;1788;49.400;11.092;2023-07-09T04:33:55;20.80;52.10
3548;DHT22;1788;49.400;11.092;2023-07-09T04:36:22;20.90;52.20
3548;DHT22;1788;49.400;11.092;2023-07-09T04:38:49;20.90;52.20
3548;DHT22;1788;49.400;11.092;2023-07-09T04:41:16;21.00;52.30
3548;DHT22;1788;49.400;11.092;2023-07-09T04:43:43;21.00;52.30
3548;DHT22;1788;49.400;11.092;2023-07-09T04:46:11;21.10;52.50
3548;DHT22;1788;49.400;11.092;2023-07-09T04:48:38;21.00;52.40
3548;DHT22;1788;49.400;11.092;2023-07-09T04:51:04;21.10;52.40
3548;DHT22;1788;49.400;11.092;2023-07-09T04:53:31;21.20;53.00
3548;DHT22;1788;49.400;11.092;2023-07-09T04:55:58;21.20;52.40
3548;DHT22;1788;49.400;11.092;2023-07-09T04:58:24;21.30;52.30
3548;DHT22;1788;49.400;11.092;2023-07-09T05:00:52;21.30;52.10
3548;DHT22;1788;49.400;11.092;2023-07-09T05:03:18;21.20;52.00
3548;DHT22;1788;49.400;11.092;2023-07-09T05:05:45;21.30;52.00
3548;DHT22;1788;49.400;11.092;2023-07-09T05:08:12;21.30;51.90
3548;DHT22;1788;49.400;11.092;2023-07-09T05:13:05;21.40;51.80
3548;DHT22;1788;49.400;11.092;2023-07-09T05:15:31;21.50;51.80
3548;DHT22;1788;49.400;11.092;2023-07-09T05:17:59;21.70;51.80
3548;DHT22;1788;49.400;11.092;2023-07-09T05:20:25;21.70;51.70
3548;DHT22;1788;49.400;11.092;2023-07-09T05:22:53;21.90;51.60
3548;DHT22;1788;49.400;11.092;2023-07-09T05:25:19;21.90;51.60
3548;DHT22;1788;49.400;11.092;2023-07-09T05:27:47;22.20;51.60
3548;DHT22;1788;49.400;11.092;2023-07-09T05:30:13;22.10;51.50
3548;DHT22;1788;49.400;11.092;2023-07-09T05:32:41;22.40;51.30
3548;DHT22;1788;49.400;11.092;2023-07-09T05:35:07;22.40;51.30
3548;DHT22;1788;49.400;11.092;2023-07-09T05:37:35;22.60;50.90
3548;DHT22;1788;49.400;11.092;2023-07-09T05:40:01;22.60;50.90
3548;DHT22;1788;49.400;11.092;2023-07-09T05:42:29;22.70;51.00
3548;DHT22;1788;49.400;11.092;2023-07-09T05:44:55;22.70;50.60
3548;DHT22;1788;49.400;11.092;2023-07-09T05:47:23;22.90;50.40
3548;DHT22;1788;49.400;11.092;2023-07-09T05:49:49;22.90;50.40
3548;DHT22;1788;49.400;11.092;2023-07-09T05:52:17;23.10;50.10
3548;DHT22;1788;49.400;11.092;2023-07-09T05:54:43;23.10;50.10
3548;DHT22;1788;49.400;11.092;2023-07-09T05:57:11;23.40;49.30
3548;DHT22;1788;49.400;11.092;2023-07-09T05:59:37;23.40;49.80
3548;DHT22;1788;49.400;11.092;2023-07-09T06:02:07;23.60;49.00
3548;DHT22;1788;49.400;11.092;2023-07-09T06:04:31;23.60;49.50
3548;DHT22;1788;49.400;11.092;2023-07-09T06:06:58;23.70;49.30
3548;DHT22;1788;49.400;11.092;2023-07-09T06:09:24;23.90;49.20
3548;DHT22;1788;49.400;11.092;2023-07-09T06:11:51;24.00;49.10
3548;DHT22;1788;49.400;11.092;2023-07-09T06:14:18;24.10;48.90
3548;DHT22;1788;49.400;11.092;2023-07-09T06:16:44;24.20;48.70
3548;DHT22;1788;49.400;11.092;2023-07-09T06:19:11;24.30;48.60
3548;DHT22;1788;49.400;11.092;2023-07-09T06:21:38;24.40;48.50
3548;DHT22;1788;49.400;11.092;2023-07-09T06:24:05;24.50;48.30
3548;DHT22;1788;49.400;11.092;2023-07-09T06:26:31;24.70;48.10
3548;DHT22;1788;49.400;11.092;2023-07-09T06:28:57;24.80;48.00
3548;DHT22;1788;49.400;11.092;2023-07-09T06:31:24;25.00;47.80
3548;DHT22;1788;49.400;11.092;2023-07-09T06:33:51;25.10;47.50
3548;DHT22;1788;49.400;11.092;2023-07-09T06:36:18;25.20;47.20
3548;DHT22;1788;49.400;11.092;2023-07-09T06:38:45;25.40;47.10
3548;DHT22;1788;49.400;11.092;2023-07-09T06:41:13;25.60;46.60
3548;DHT22;1788;49.400;11.092;2023-07-09T06:43:39;25.60;46.50
3548;DHT22;1788;49.400;11.092;2023-07-09T06:46:07;25.80;46.30
3548;DHT22;1788;49.400;11.092;2023-07-09T06:48:33;25.80;46.30
3548;DHT22;1788;49.400;11.092;2023-07-09T06:51:01;26.10;46.10
3548;DHT22;1788;49.400;11.092;2023-07-09T06:53:27;26.10;46.10
3548;DHT22;1788;49.400;11.092;2023-07-09T06:55:54;26.20;45.90
3548;DHT22;1788;49.400;11.092;2023-07-09T07:00:48;26.40;45.70
3548;DHT22;1788;49.400;11.092;2023-07-09T07:03:15;26.60;45.70
3548;DHT22;1788;49.400;11.092;2023-07-09T07:08:08;26.90;45.40
3548;DHT22;1788;49.400;11.092;2023-07-09T07:10:35;27.00;45.30
3548;DHT22;1788;49.400;11.092;2023-07-09T07:13:01;27.10;45.30
3548;DHT22;1788;49.400;11.092;2023-07-09T07:15:29;27.50;45.10
3548;DHT22;1788;49.400;11.092;2023-07-09T07:17:55;27.40;45.00
3548;DHT22;1788;49.400;11.092;2023-07-09T07:20:23;27.70;44.80
3548;DHT22;1788;49.400;11.092;2023-07-09T07:22:49;27.70;44.80
3548;DHT22;1788;49.400;11.092;2023-07-09T07:25:16;27.90;44.70
3548;DHT22;1788;49.400;11.092;2023-07-09T07:27:43;28.20;44.70
3548;DHT22;1788;49.400;11.092;2023-07-09T07:30:10;28.10;44.20
3548;DHT22;1788;49.400;11.092;2023-07-09T07:32:38;28.30;44.10
3548;DHT22;1788;49.400;11.092;2023-07-09T07:35:05;28.60;43.80
3548;DHT22;1788;49.400;11.092;2023-07-09T07:37:31;28.50;43.70
3548;DHT22;1788;49.400;11.092;2023-07-09T07:39:59;28.80;43.40
3548;DHT22;1788;49.400;11.092;2023-07-09T07:42:25;28.80;43.40
3548;DHT22;1788;49.400;11.092;2023-07-09T07:44:53;29.00;43.10
3548;DHT22;1788;49.400;11.092;2023-07-09T07:47:19;29.00;43.00
3548;DHT22;1788;49.400;11.092;2023-07-09T07:49:46;29.10;42.80
3548;DHT22;1788;49.400;11.092;2023-07-09T07:52:13;29.30;42.70
3548;DHT22;1788;49.400;11.092;2023-07-09T07:54:39;29.50;42.50
3548;DHT22;1788;49.400;11.092;2023-07-09T07:57:07;29.70;42.10
3548;DHT22;1788;49.400;11.092;2023-07-09T07:59:33;29.70;42.10
3548;DHT22;1788;49.400;11.092;2023-07-09T08:02:01;29.90;41.70
3548;DHT22;1788;49.400;11.092;2023-07-09T08:04:27;29.90;41.70
3548;DHT22;1788;49.400;11.092;2023-07-09T08:06:55;30.10;41.70
3548;DHT22;1788;49.400;11.092;2023-07-09T08:09:21;30.10;41.30
3548;DHT22;1788;49.400;11.092;2023-07-09T08:11:49;30.40;40.90
3548;DHT22;1788;49.400;11.092;2023-07-09T08:14:15;30.30;41.00
3548;DHT22;1788;49.400;11.092;2023-07-09T08:16:42;30.50;40.70
3548;DHT22;1788;49.400;11.092;2023-07-09T08:19:08;30.60;40.40
3548;DHT22;1788;49.400;11.092;2023-07-09T08:21:35;30.70;40.30
3548;DHT22;1788;49.400;11.092;2023-07-09T08:24:02;30.80;40.10
3548;DHT22;1788;49.400;11.092;2023-07-09T08:26:28;30.90;39.90
3548;DHT22;1788;49.400;11.092;2023-07-09T08:28:56;31.00;39.60
3548;DHT22;1788;49.400;11.092;2023-07-09T08:31:23;31.10;39.40
3548;DHT22;1788;49.400;11.092;2023-07-09T08:33:49;31.20;39.00
3548;DHT22;1788;49.400;11.092;2023-07-09T08:36:17;31.40;38.70
3548;DHT22;1788;49.400;11.092;2023-07-09T08:38:43;31.40;38.60
3548;DHT22;1788;49.400;11.092;2023-07-09T08:48:34;31.90;37.40
3548;DHT22;1788;49.400;11.092;2023-07-09T08:50:59;32.00;37.30
3548;DHT22;1788;49.400;11.092;2023-07-09T08:53:28;32.20;36.90
3548;DHT22;1788;49.400;11.092;2023-07-09T08:55:51;32.30;36.40
3548;DHT22;1788;49.400;11.092;2023-07-09T09:05:41;32.50;35.10
3548;DHT22;1788;49.400;11.092;2023-07-09T09:10:33;32.70;34.90
3548;DHT22;1788;49.400;11.092;2023-07-09T09:13:02;32.70;34.90
3548;DHT22;1788;49.400;11.092;2023-07-09T09:15:26;32.90;34.50
3548;DHT22;1788;49.400;11.092;2023-07-09T09:17:54;32.90;34.50
3548;DHT22;1788;49.400;11.092;2023-07-09T09:20:20;33.20;34.00
3548;DHT22;1788;49.400;11.092;2023-07-09T09:27:40;33.30;32.80
3548;DHT22;1788;49.400;11.092;2023-07-09T09:35:10;33.50;32.20
3548;DHT22;1788;49.400;11.092;2023-07-09T09:37:28;33.60;31.90
3548;DHT22;1788;49.400;11.092;2023-07-09T09:39:53;33.60;31.60
3548;DHT22;1788;49.400;11.092;2023-07-09T09:42:20;33.70;31.40
3548;DHT22;1788;49.400;11.092;2023-07-09T09:44:46;33.80;31.40
3548;DHT22;1788;49.400;11.092;2023-07-09T09:47:13;34.00;31.50
3548;DHT22;1788;49.400;11.092;2023-07-09T09:49:40;34.10;31.10
3548;DHT22;1788;49.400;11.092;2023-07-09T09:54:33;34.30;30.30
3548;DHT22;1788;49.400;11.092;2023-07-09T09:57:00;34.40;30.10
3548;DHT22;1788;49.400;11.092;2023-07-09T10:04:20;34.50;29.50
3548;DHT22;1788;49.400;11.092;2023-07-09T10:06:49;34.50;29.50
3548;DHT22;1788;49.400;11.092;2023-07-09T10:16:40;34.80;28.90
3548;DHT22;1788;49.400;11.092;2023-07-09T10:23:59;35.00;28.30
3548;DHT22;1788;49.400;11.092;2023-07-09T10:38:39;35.70;28.00
3548;DHT22;1788;49.400;11.092;2023-07-09T10:41:02;35.90;27.90
3548;DHT22;1788;49.400;11.092;2023-07-09T10:43:32;36.00;27.60
3548;DHT22;1788;49.400;11.092;2023-07-09T10:45:56;36.00;27.40
3548;DHT22;1788;49.400;11.092;2023-07-09T10:50:50;36.00;27.10
3548;DHT22;1788;49.400;11.092;2023-07-09T10:55:47;36.10;26.90
3548;DHT22;1788;49.400;11.092;2023-07-09T10:58:15;36.20;26.80
3548;DHT22;1788;49.400;11.092;2023-07-09T11:00:37;36.20;26.60
3548;DHT22;1788;49.400;11.092;2023-07-09T11:03:04;36.20;26.60
3548;DHT22;1788;49.400;11.092;2023-07-09T11:05:28;36.30;26.60
3548;DHT22;1788;49.400;11.092;2023-07-09T11:12:59;36.60;26.60
3548;DHT22;1788;49.400;11.092;2023-07-09T11:15:17;36.60;26.50
3548;DHT22;1788;49.400;11.092;2023-07-09T11:17:44;36.70;26.50
3548;DHT22;1788;49.400;11.092;2023-07-09T11:27:29;36.90;26.30
3548;DHT22;1788;49.400;11.092;2023-07-09T11:29:57;37.00;26.30
3548;DHT22;1788;49.400;11.092;2023-07-09T11:32:23;37.10;26.20
3548;DHT22;1788;49.400;11.092;2023-07-09T11:34:49;37.30;26.30
3548;DHT22;1788;49.400;11.092;2023-07-09T11:37:16;37.50;26.10
3548;DHT22;1788;49.400;11.092;2023-07-09T11:39:44;37.70;26.10
3548;DHT22;1788;49.400;11.092;2023-07-09T11:44:36;37.90;25.70
3548;DHT22;1788;49.400;11.092;2023-07-09T11:51:59;38.20;25.40
3548;DHT22;1788;49.400;11.092;2023-07-09T11:54:23;38.40;25.30
3548;DHT22;1788;49.400;11.092;2023-07-09T11:59:18;38.50;25.10
3548;DHT22;1788;49.400;11.092;2023-07-09T12:01:45;38.50;25.00
3548;DHT22;1788;49.400;11.092;2023-07-09T12:06:40;38.40;24.80
3548;DHT22;1788;49.400;11.092;2023-07-09T12:09:08;38.40;24.70
3548;DHT22;1788;49.400;11.092;2023-07-09T12:11:33;38.30;24.50
3548;DHT22;1788;49.400;11.092;2023-07-09T12:16:28;38.20;24.40
3548;DHT22;1788;49.400;11.092;2023-07-09T12:18:53;38.10;24.30
3548;DHT22;1788;49.400;11.092;2023-07-09T12:21:20;38.00;24.30
3548;DHT22;1788;49.400;11.092;2023-07-09T12:23:47;38.00;24.30
3548;DHT22;1788;49.400;11.092;2023-07-09T12:26:14;38.00;24.40
3548;DHT22;1788;49.400;11.092;2023-07-09T12:28:40;38.00;24.30
3548;DHT22;1788;49.400;11.092;2023-07-09T12:33:33;38.30;24.30
3548;DHT22;1788;49.400;11.092;2023-07-09T12:36:01;38.40;24.30
3548;DHT22;1788;49.400;11.092;2023-07-09T12:38:27;38.50;24.20
3548;DHT22;1788;49.400;11.092;2023-07-09T12:40:53;38.70;24.20
3548;DHT22;1788;49.400;11.092;2023-07-09T12:45:46;38.70;24.00
3548;DHT22;1788;49.400;11.092;2023-07-09T12:48:13;38.60;23.90
3548;DHT22;1788;49.400;11.092;2023-07-09T12:50:40;38.60;23.90
3548;DHT22;1788;49.400;11.092;2023-07-09T12:55:38;38.50;23.60
3548;DHT22;1788;49.400;11.092;2023-07-09T12:58:00;38.60;23.50
3548;DHT22;1788;49.400;11.092;2023-07-09T13:00:29;38.50;23.50
3548;DHT22;1788;49.400;11.092;2023-07-09T13:02:54;38.70;23.40
3548;DHT22;1788;49.400;11.092;2023-07-09T13:05:21;38.70;23.30
3548;DHT22;1788;49.400;11.092;2023-07-09T13:07:49;38.70;23.40
3548;DHT22;1788;49.400;11.092;2023-07-09T13:10:15;38.80;23.60
3548;DHT22;1788;49.400;11.092;2023-07-09T13:12:40;39.00;23.60
3548;DHT22;1788;49.400;11.092;2023-07-09T13:17:33;38.80;23.50
3548;DHT22;1788;49.400;11.092;2023-07-09T13:20:00;39.00;23.50
3548;DHT22;1788;49.400;11.092;2023-07-09T13:22:27;39.10;23.30
3548;DHT22;1788;49.400;11.092;2023-07-09T13:24:53;39.20;23.30
3548;DHT22;1788;49.400;11.092;2023-07-09T13:27:22;39.10;23.20
3548;DHT22;1788;49.400;11.092;2023-07-09T13:29:49;39.20;23.30
3548;DHT22;1788;49.400;11.092;2023-07-09T13:32:15;39.20;23.40
3548;DHT22;1788;49.400;11.092;2023-07-09T13:34:42;39.20;23.40
3548;DHT22;1788;49.400;11.092;2023-07-09T13:37:11;39.20;23.90
3548;DHT22;1788;49.400;11.092;2023-07-09T13:39:35;39.30;23.40
3548;DHT22;1788;49.400;11.092;2023-07-09T13:42:03;39.40;23.20
3548;DHT22;1788;49.400;11.092;2023-07-09T13:44:30;39.50;23.10
3548;DHT22;1788;49.400;11.092;2023-07-09T13:46:56;39.40;23.00
3548;DHT22;1788;49.400;11.092;2023-07-09T13:49:23;39.40;23.00
3548;DHT22;1788;49.400;11.092;2023-07-09T13:51:50;39.30;22.80
3548;DHT22;1788;49.400;11.092;2023-07-09T13:54:17;39.20;22.60
3548;DHT22;1788;49.400;11.092;2023-07-09T13:56:43;39.00;22.50
3548;DHT22;1788;49.400;11.092;2023-07-09T14:01:37;38.80;22.80
3548;DHT22;1788;49.400;11.092;2023-07-09T14:04:03;38.70;22.70
3548;DHT22;1788;49.400;11.092;2023-07-09T14:06:30;38.70;22.70
3548;DHT22;1788;49.400;11.092;2023-07-09T14:08:56;38.70;22.80
3548;DHT22;1788;49.400;11.092;2023-07-09T14:11:24;38.80;22.90
3548;DHT22;1788;49.400;11.092;2023-07-09T14:13:50;38.90;22.90
3548;DHT22;1788;49.400;11.092;2023-07-09T14:16:16;39.00;22.80
3548;DHT22;1788;49.400;11.092;2023-07-09T14:18:43;39.10;22.70
3548;DHT22;1788;49.400;11.092;2023-07-09T14:23:36;39.10;22.70
3548;DHT22;1788;49.400;11.092;2023-07-09T14:26:04;39.00;22.60
3548;DHT22;1788;49.400;11.092;2023-07-09T14:28:30;39.00;22.50
3548;DHT22;1788;49.400;11.092;2023-07-09T14:30:57;38.90;22.50
3548;DHT22;1788;49.400;11.092;2023-07-09T14:33:24;38.90;22.60
3548;DHT22;1788;49.400;11.092;2023-07-09T14:35:52;38.90;22.80
3548;DHT22;1788;49.400;11.092;2023-07-09T14:38:22;38.90;22.80
3548;DHT22;1788;49.400;11.092;2023-07-09T14:40:48;38.80;22.80
3548;DHT22;1788;49.400;11.092;2023-07-09T14:43:14;38.70;22.90
3548;DHT22;1788;49.400;11.092;2023-07-09T14:45:41;38.70;22.90
3548;DHT22;1788;49.400;11.092;2023-07-09T14:50:34;38.60;22.80
3548;DHT22;1788;49.400;11.092;2023-07-09T14:53:01;38.60;22.70
3548;DHT22;1788;49.400;11.092;2023-07-09T14:55:28;38.50;22.70
3548;DHT22;1788;49.400;11.092;2023-07-09T14:57:55;38.50;22.70
3548;DHT22;1788;49.400;11.092;2023-07-09T15:00:22;38.60;22.70
3548;DHT22;1788;49.400;11.092;2023-07-09T15:02:49;38.60;22.70
3548;DHT22;1788;49.400;11.092;2023-07-09T15:05:16;38.60;22.70
3548;DHT22;1788;49.400;11.092;2023-07-09T15:07:41;38.60;22.70
3548;DHT22;1788;49.400;11.092;2023-07-09T15:10:11;38.70;22.60
3548;DHT22;1788;49.400;11.092;2023-07-09T15:12:35;38.70;22.40
3548;DHT22;1788;49.400;11.092;2023-07-09T15:17:30;38.50;22.30
3548;DHT22;1788;49.400;11.092;2023-07-09T15:19:57;38.50;22.20
3548;DHT22;1788;49.400;11.092;2023-07-09T15:22:26;38.50;22.40
3548;DHT22;1788;49.400;11.092;2023-07-09T15:24:50;38.50;22.50
3548;DHT22;1788;49.400;11.092;2023-07-09T15:27:17;38.50;22.60
3548;DHT22;1788;49.400;11.092;2023-07-09T15:29:44;38.50;22.60
3548;DHT22;1788;49.400;11.092;2023-07-09T15:32:11;38.50;22.60
3548;DHT22;1788;49.400;11.092;2023-07-09T15:34:38;38.50;22.60
3548;DHT22;1788;49.400;11.092;2023-07-09T15:37:08;38.40;22.60
3548;DHT22;1788;49.400;11.092;2023-07-09T15:39:31;38.30;22.60
3548;DHT22;1788;49.400;11.092;2023-07-09T15:41:58;38.20;22.70
3548;DHT22;1788;49.400;11.092;2023-07-09T15:44:26;38.30;22.80
3548;DHT22;1788;49.400;11.092;2023-07-09T15:46:55;38.30;22.90
3548;DHT22;1788;49.400;11.092;2023-07-09T15:49:20;38.20;22.90
3548;DHT22;1788;49.400;11.092;2023-07-09T15:51:47;38.10;22.90
3548;DHT22;1788;49.400;11.092;2023-07-09T15:54:15;38.10;22.90
3548;DHT22;1788;49.400;11.092;2023-07-09T15:56:40;38.00;23.00
3548;DHT22;1788;49.400;11.092;2023-07-09T15:59:08;37.90;23.10
3548;DHT22;1788;49.400;11.092;2023-07-09T16:01:34;37.90;23.20
3548;DHT22;1788;49.400;11.092;2023-07-09T16:04:01;37.80;23.20
3548;DHT22;1788;49.400;11.092;2023-07-09T16:06:28;37.80;23.30
3548;DHT22;1788;49.400;11.092;2023-07-09T16:08:54;37.80;23.30
3548;DHT22;1788;49.400;11.092;2023-07-09T16:11:22;37.70;23.40
3548;DHT22;1788;49.400;11.092;2023-07-09T16:13:48;37.60;23.40
3548;DHT22;1788;49.400;11.092;2023-07-09T16:18:41;37.30;23.60
3548;DHT22;1788;49.400;11.092;2023-07-09T16:21:13;37.30;23.60
3548;DHT22;1788;49.400;11.092;2023-07-09T16:23:35;37.30;23.60
3548;DHT22;1788;49.400;11.092;2023-07-09T16:26:01;37.20;23.70
3548;DHT22;1788;49.400;11.092;2023-07-09T16:28:28;37.10;23.70
3548;DHT22;1788;49.400;11.092;2023-07-09T16:30:56;37.00;24.00
3548;DHT22;1788;49.400;11.092;2023-07-09T16:33:23;37.00;24.00
3548;DHT22;1788;49.400;11.092;2023-07-09T16:35:50;36.90;24.00
3548;DHT22;1788;49.400;11.092;2023-07-09T16:38:16;36.90;24.10
3548;DHT22;1788;49.400;11.092;2023-07-09T16:40:43;36.90;24.10
3548;DHT22;1788;49.400;11.092;2023-07-09T16:45:38;36.70;24.20
3548;DHT22;1788;49.400;11.092;2023-07-09T16:48:08;36.60;24.20
3548;DHT22;1788;49.400;11.092;2023-07-09T16:50:31;36.50;24.30
3548;DHT22;1788;49.400;11.092;2023-07-09T16:52:59;36.40;24.20
3548;DHT22;1788;49.400;11.092;2023-07-09T16:55:27;36.40;24.40
3548;DHT22;1788;49.400;11.092;2023-07-09T16:57:53;36.40;24.50
3548;DHT22;1788;49.400;11.092;2023-07-09T17:00:21;36.30;24.50
3548;DHT22;1788;49.400;11.092;2023-07-09T17:02:45;36.30;24.50
3548;DHT22;1788;49.400;11.092;2023-07-09T17:05:12;36.20;24.60
3548;DHT22;1788;49.400;11.092;2023-07-09T17:07:39;36.10;24.60
3548;DHT22;1788;49.400;11.092;2023-07-09T17:10:06;36.10;24.70
3548;DHT22;1788;49.400;11.092;2023-07-09T17:12:32;36.00;24.80
3548;DHT22;1788;49.400;11.092;2023-07-09T17:14:59;35.90;24.90
3548;DHT22;1788;49.400;11.092;2023-07-09T17:17:26;35.90;25.00
3548;DHT22;1788;49.400;11.092;2023-07-09T17:19:52;35.80;25.10
3548;DHT22;1788;49.400;11.092;2023-07-09T17:24:46;35.70;25.20
3548;DHT22;1788;49.400;11.092;2023-07-09T17:27:12;35.60;25.40
3548;DHT22;1788;49.400;11.092;2023-07-09T17:29:39;35.60;25.50
3548;DHT22;1788;49.400;11.092;2023-07-09T17:32:06;35.50;25.50
3548;DHT22;1788;49.400;11.092;2023-07-09T17:34:32;35.50;25.60
3548;DHT22;1788;49.400;11.092;2023-07-09T17:36:59;35.40;25.70
3548;DHT22;1788;49.400;11.092;2023-07-09T17:39:25;35.30;25.70
3548;DHT22;1788;49.400;11.092;2023-07-09T17:41:52;35.30;25.80
3548;DHT22;1788;49.400;11.092;2023-07-09T17:44:20;35.30;25.80
3548;DHT22;1788;49.400;11.092;2023-07-09T17:46:47;35.30;25.90
3548;DHT22;1788;49.400;11.092;2023-07-09T17:51:39;35.20;26.10
3548;DHT22;1788;49.400;11.092;2023-07-09T17:54:13;35.10;26.20
3548;DHT22;1788;49.400;11.092;2023-07-09T17:56:34;35.10;26.30
3548;DHT22;1788;49.400;11.092;2023-07-09T17:59:01;35.10;26.50
3548;DHT22;1788;49.400;11.092;2023-07-09T18:01:27;35.00;26.60
3548;DHT22;1788;49.400;11.092;2023-07-09T18:03:54;35.00;26.70